sensor_id;sensor_type;location;lat;lon;timestamp;P1;durP1;ratioP1;P2;durP2;ratioP2
26040;SDS011;13816;53.628;9.950;2023-02-01T00:04:16;19.53;;;4.73;;
26040;SDS011;13816;53.628;9.950;2023-02-01T00:08:11;22.20;;;4.70;;
26040;SDS011;13816;53.628;9.950;2023-02-01T00:12:09;19.83;;;5.53;;
26040;SDS011;13816;53.628;9.950;2023-02-01T00:19:23;24.50;;;4.73;;
26040;SDS011;13816;53.628;9.950;2023-02-01T00:22:41;29.37;;;5.87;;
26040;SDS011;13816;53.628;9.950;2023-02-01T00:25:42;28.97;;;5.93;;
26040;SDS011;13816;53.628;9.950;2023-02-01T00:28:35;31.17;;;6.37;;
26040;SDS011;13816;53.628;9.950;2023-02-01T00:31:22;33.47;;;6.60;;
26040;SDS011;13816;53.628;9.950;2023-02-01T00:38:36;33.00;;;5.83;;
26040;SDS011;13816;53.628;9.950;2023-02-01T00:41:59;21.63;;;4.43;;
26040;SDS011;13816;53.628;9.950;2023-02-01T00:45:48;24.07;;;4.30;;
26040;SDS011;13816;53.628;9.950;2023-02-01T00:49:08;28.30;;;4.53;;
26040;SDS011;13816;53.628;9.950;2023-02-01T00:53:11;31.27;;;7.33;;
26040;SDS011;13816;53.628;9.950;2023-02-01T00:56:50;33.03;;;7.13;;
26040;SDS011;13816;53.628;9.950;2023-02-01T01:01:34;29.13;;;6.23;;
26040;SDS011;13816;53.628;9.950;2023-02-01T01:05:14;34.97;;;6.10;;
26040;SDS011;13816;53.628;9.950;2023-02-01T01:12:08;37.30;;;7.00;;
26040;SDS011;13816;53.628;9.950;2023-02-01T01:15:36;51.73;;;8.10;;
26040;SDS011;13816;53.628;9.950;2023-02-01T01:19:26;35.33;;;6.47;;
26040;SDS011;13816;53.628;9.950;2023-02-01T01:22:53;45.27;;;6.57;;
26040;SDS011;13816;53.628;9.950;2023-02-01T01:26:37;33.67;;;7.80;;
26040;SDS011;13816;53.628;9.950;2023-02-01T01:30:24;52.93;;;7.80;;
26040;SDS011;13816;53.628;9.950;2023-02-01T01:44:57;34.07;;;7.00;;
26040;SDS011;13816;53.628;9.950;2023-02-01T01:48:35;27.93;;;6.07;;
26040;SDS011;13816;53.628;9.950;2023-02-01T01:52:15;33.03;;;5.50;;
26040;SDS011;13816;53.628;9.950;2023-02-01T01:55:42;30.27;;;5.60;;
26040;SDS011;13816;53.628;9.950;2023-02-01T01:59:39;34.67;;;7.20;;
26040;SDS011;13816;53.628;9.950;2023-02-01T02:07:10;31.53;;;5.70;;
26040;SDS011;13816;53.628;9.950;2023-02-01T02:11:12;41.37;;;7.20;;
26040;SDS011;13816;53.628;9.950;2023-02-01T02:14:55;33.47;;;8.00;;
26040;SDS011;13816;53.628;9.950;2023-02-01T02:25:45;42.70;;;5.87;;
26040;SDS011;13816;53.628;9.950;2023-02-01T03:02:38;42.30;;;6.57;;
26040;SDS011;13816;53.628;9.950;2023-02-01T03:06:15;44.30;;;7.00;;
26040;SDS011;13816;53.628;9.950;2023-02-01T03:09:35;36.77;;;6.13;;
26040;SDS011;13816;53.628;9.950;2023-02-01T03:12:51;38.63;;;6.90;;
26040;SDS011;13816;53.628;9.950;2023-02-01T03:19:25;27.13;;;6.50;;
26040;SDS011;13816;53.628;9.950;2023-02-01T03:24:32;31.47;;;7.10;;
26040;SDS011;13816;53.628;9.950;2023-02-01T03:27:24;33.83;;;6.03;;
26040;SDS011;13816;53.628;9.950;2023-02-01T03:30:48;39.57;;;6.03;;
26040;SDS011;13816;53.628;9.950;2023-02-01T03:34:10;28.70;;;5.17;;
26040;SDS011;13816;53.628;9.950;2023-02-01T03:40:25;24.70;;;5.60;;
26040;SDS011;13816;53.628;9.950;2023-02-01T03:50:33;25.33;;;4.53;;
26040;SDS011;13816;53.628;9.950;2023-02-01T03:58:09;22.23;;;4.03;;
26040;SDS011;13816;53.628;9.950;2023-02-01T04:05:46;37.57;;;5.87;;
26040;SDS011;13816;53.628;9.950;2023-02-01T04:11:56;16.30;;;3.07;;
26040;SDS011;13816;53.628;9.950;2023-02-01T04:14:57;25.90;;;4.90;;
26040;SDS011;13816;53.628;9.950;2023-02-01T04:17:55;28.33;;;5.00;;
26040;SDS011;13816;53.628;9.950;2023-02-01T04:22:02;13.60;;;4.03;;
26040;SDS011;13816;53.628;9.950;2023-02-01T04:25:34;24.50;;;5.23;;
26040;SDS011;13816;53.628;9.950;2023-02-01T04:29:20;32.60;;;5.07;;
26040;SDS011;13816;53.628;9.950;2023-02-01T04:32:36;21.33;;;4.70;;
26040;SDS011;13816;53.628;9.950;2023-02-01T04:35:22;23.80;;;4.77;;
26040;SDS011;13816;53.628;9.950;2023-02-01T04:41:53;22.17;;;3.33;;
26040;SDS011;13816;53.628;9.950;2023-02-01T04:48:06;28.20;;;5.60;;
26040;SDS011;13816;53.628;9.950;2023-02-01T04:51:05;16.00;;;3.53;;
26040;SDS011;13816;53.628;9.950;2023-02-01T04:53:39;18.10;;;3.77;;
26040;SDS011;13816;53.628;9.950;2023-02-01T04:56:45;16.57;;;2.77;;
26040;SDS011;13816;53.628;9.950;2023-02-01T05:04:09;8.40;;;2.47;;
26040;SDS011;13816;53.628;9.950;2023-02-01T05:11:14;4.87;;;1.50;;
26040;SDS011;13816;53.628;9.950;2023-02-01T05:14:21;7.40;;;1.50;;
26040;SDS011;13816;53.628;9.950;2023-02-01T05:20:50;6.77;;;1.60;;
26040;SDS011;13816;53.628;9.950;2023-02-01T05:23:37;3.40;;;1.40;;
26040;SDS011;13816;53.628;9.950;2023-02-01T05:27:28;7.27;;;1.50;;
26040;SDS011;13816;53.628;9.950;2023-02-01T05:31:19;6.57;;;1.40;;
26040;SDS011;13816;53.628;9.950;2023-02-01T05:35:21;7.03;;;1.17;;
26040;SDS011;13816;53.628;9.950;2023-02-01T05:38:25;4.97;;;1.03;;
26040;SDS011;13816;53.628;9.950;2023-02-01T05:41:21;4.80;;;1.20;;
26040;SDS011;13816;53.628;9.950;2023-02-01T05:44:34;3.00;;;1.00;;
26040;SDS011;13816;53.628;9.950;2023-02-01T05:51:01;7.07;;;1.20;;
26040;SDS011;13816;53.628;9.950;2023-02-01T05:53:26;4.73;;;1.20;;
26040;SDS011;13816;53.628;9.950;2023-02-01T05:55:52;2.23;;;1.40;;
26040;SDS011;13816;53.628;9.950;2023-02-01T05:58:18;2.50;;;1.13;;
26040;SDS011;13816;53.628;9.950;2023-02-01T06:00:44;2.37;;;0.93;;
26040;SDS011;13816;53.628;9.950;2023-02-01T06:03:10;1.30;;;0.90;;
26040;SDS011;13816;53.628;9.950;2023-02-01T06:05:36;5.77;;;1.00;;
26040;SDS011;13816;53.628;9.950;2023-02-01T06:08:02;1.87;;;0.93;;
26040;SDS011;13816;53.628;9.950;2023-02-01T06:10:29;5.93;;;1.93;;
26040;SDS011;13816;53.628;9.950;2023-02-01T06:12:55;4.10;;;1.03;;
26040;SDS011;13816;53.628;9.950;2023-02-01T06:15:22;2.40;;;1.57;;
26040;SDS011;13816;53.628;9.950;2023-02-01T06:17:48;7.40;;;1.87;;
26040;SDS011;13816;53.628;9.950;2023-02-01T06:20:14;2.80;;;1.40;;
26040;SDS011;13816;53.628;9.950;2023-02-01T06:22:40;3.60;;;1.50;;
26040;SDS011;13816;53.628;9.950;2023-02-01T06:25:10;3.13;;;1.50;;
26040;SDS011;13816;53.628;9.950;2023-02-01T06:27:36;8.90;;;2.10;;
26040;SDS011;13816;53.628;9.950;2023-02-01T06:30:03;6.00;;;1.77;;
26040;SDS011;13816;53.628;9.950;2023-02-01T06:32:31;8.00;;;1.40;;
26040;SDS011;13816;53.628;9.950;2023-02-01T06:34:58;12.27;;;1.70;;
26040;SDS011;13816;53.628;9.950;2023-02-01T06:37:24;12.67;;;1.70;;
26040;SDS011;13816;53.628;9.950;2023-02-01T06:39:52;9.40;;;2.60;;
26040;SDS011;13816;53.628;9.950;2023-02-01T06:42:18;8.37;;;2.13;;
26040;SDS011;13816;53.628;9.950;2023-02-01T06:44:45;13.80;;;2.63;;
26040;SDS011;13816;53.628;9.950;2023-02-01T06:47:11;15.03;;;2.60;;
26040;SDS011;13816;53.628;9.950;2023-02-01T06:49:37;18.50;;;3.80;;
26040;SDS011;13816;53.628;9.950;2023-02-01T06:52:03;20.80;;;3.47;;
26040;SDS011;13816;53.628;9.950;2023-02-01T06:54:29;16.43;;;3.47;;
26040;SDS011;13816;53.628;9.950;2023-02-01T06:56:58;17.83;;;3.20;;
26040;SDS011;13816;53.628;9.950;2023-02-01T06:59:24;23.10;;;4.47;;
26040;SDS011;13816;53.628;9.950;2023-02-01T07:01:51;20.17;;;3.43;;
26040;SDS011;13816;53.628;9.950;2023-02-01T07:04:17;25.17;;;3.40;;
26040;SDS011;13816;53.628;9.950;2023-02-01T07:06:43;14.77;;;3.23;;
26040;SDS011;13816;53.628;9.950;2023-02-01T07:09:09;15.30;;;3.20;;
26040;SDS011;13816;53.628;9.950;2023-02-01T07:11:37;21.23;;;3.80;;
26040;SDS011;13816;53.628;9.950;2023-02-01T07:14:06;17.40;;;3.50;;
26040;SDS011;13816;53.628;9.950;2023-02-01T07:16:32;22.20;;;2.80;;
26040;SDS011;13816;53.628;9.950;2023-02-01T07:18:58;24.13;;;3.57;;
26040;SDS011;13816;53.628;9.950;2023-02-01T07:21:24;17.80;;;4.10;;
26040;SDS011;13816;53.628;9.950;2023-02-01T07:23:53;18.47;;;3.77;;
26040;SDS011;13816;53.628;9.950;2023-02-01T07:26:19;20.97;;;3.40;;
26040;SDS011;13816;53.628;9.950;2023-02-01T07:28:45;21.30;;;3.63;;
26040;SDS011;13816;53.628;9.950;2023-02-01T07:31:13;23.90;;;4.37;;
26040;SDS011;13816;53.628;9.950;2023-02-01T07:33:44;37.63;;;5.80;;
26040;SDS011;13816;53.628;9.950;2023-02-01T07:36:11;23.47;;;4.60;;
26040;SDS011;13816;53.628;9.950;2023-02-01T07:38:37;23.37;;;4.90;;
26040;SDS011;13816;53.628;9.950;2023-02-01T07:41:09;20.33;;;4.10;;
26040;SDS011;13816;53.628;9.950;2023-02-01T07:43:39;20.13;;;3.43;;
26040;SDS011;13816;53.628;9.950;2023-02-01T07:46:05;31.80;;;5.03;;
26040;SDS011;13816;53.628;9.950;2023-02-01T07:48:32;21.40;;;4.30;;
26040;SDS011;13816;53.628;9.950;2023-02-01T07:51:02;17.90;;;4.77;;
26040;SDS011;13816;53.628;9.950;2023-02-01T07:53:29;24.20;;;4.93;;
26040;SDS011;13816;53.628;9.950;2023-02-01T07:55:56;31.13;;;6.20;;
26040;SDS011;13816;53.628;9.950;2023-02-01T07:58:22;28.87;;;6.50;;
26040;SDS011;13816;53.628;9.950;2023-02-01T08:00:49;32.73;;;6.07;;
26040;SDS011;13816;53.628;9.950;2023-02-01T08:03:34;43.50;;;6.50;;
26040;SDS011;13816;53.628;9.950;2023-02-01T08:06:00;37.20;;;5.83;;
26040;SDS011;13816;53.628;9.950;2023-02-01T08:08:26;27.17;;;5.80;;
26040;SDS011;13816;53.628;9.950;2023-02-01T08:10:59;23.00;;;4.17;;
26040;SDS011;13816;53.628;9.950;2023-02-01T08:13:25;34.00;;;5.40;;
26040;SDS011;13816;53.628;9.950;2023-02-01T08:15:51;44.27;;;6.60;;
26040;SDS011;13816;53.628;9.950;2023-02-01T08:18:18;27.20;;;5.83;;
26040;SDS011;13816;53.628;9.950;2023-02-01T08:21:08;41.53;;;6.57;;
26040;SDS011;13816;53.628;9.950;2023-02-01T08:23:36;33.30;;;4.67;;
26040;SDS011;13816;53.628;9.950;2023-02-01T08:28:32;28.87;;;6.73;;
26040;SDS011;13816;53.628;9.950;2023-02-01T08:30:59;32.87;;;5.90;;
26040;SDS011;13816;53.628;9.950;2023-02-01T08:33:29;31.97;;;5.90;;
26040;SDS011;13816;53.628;9.950;2023-02-01T08:35:55;24.67;;;4.90;;
26040;SDS011;13816;53.628;9.950;2023-02-01T08:38:21;19.63;;;5.07;;
26040;SDS011;13816;53.628;9.950;2023-02-01T08:40:51;20.90;;;3.90;;
26040;SDS011;13816;53.628;9.950;2023-02-01T08:43:18;21.07;;;4.43;;
26040;SDS011;13816;53.628;9.950;2023-02-01T08:45:44;23.20;;;4.10;;
26040;SDS011;13816;53.628;9.950;2023-02-01T08:48:11;18.43;;;3.20;;
26040;SDS011;13816;53.628;9.950;2023-02-01T08:50:37;23.57;;;3.63;;
26040;SDS011;13816;53.628;9.950;2023-02-01T08:53:04;13.17;;;2.77;;
26040;SDS011;13816;53.628;9.950;2023-02-01T08:55:30;17.27;;;3.10;;
26040;SDS011;13816;53.628;9.950;2023-02-01T08:57:56;14.67;;;2.97;;
26040;SDS011;13816;53.628;9.950;2023-02-01T09:00:22;17.07;;;3.30;;
26040;SDS011;13816;53.628;9.950;2023-02-01T09:02:49;17.43;;;4.57;;
26040;SDS011;13816;53.628;9.950;2023-02-01T09:05:15;33.33;;;5.10;;
26040;SDS011;13816;53.628;9.950;2023-02-01T09:07:44;32.97;;;5.70;;
26040;SDS011;13816;53.628;9.950;2023-02-01T09:10:10;30.30;;;5.27;;
26040;SDS011;13816;53.628;9.950;2023-02-01T09:12:36;17.50;;;4.00;;
26040;SDS011;13816;53.628;9.950;2023-02-01T09:15:06;25.67;;;5.30;;
26040;SDS011;13816;53.628;9.950;2023-02-01T09:17:35;22.53;;;4.60;;
26040;SDS011;13816;53.628;9.950;2023-02-01T09:20:01;25.03;;;4.73;;
26040;SDS011;13816;53.628;9.950;2023-02-01T09:22:28;21.63;;;4.77;;
26040;SDS011;13816;53.628;9.950;2023-02-01T09:24:55;30.70;;;5.20;;
26040;SDS011;13816;53.628;9.950;2023-02-01T09:27:21;29.17;;;5.23;;
26040;SDS011;13816;53.628;9.950;2023-02-01T09:29:48;26.63;;;4.30;;
26040;SDS011;13816;53.628;9.950;2023-02-01T09:32:20;24.17;;;5.97;;
26040;SDS011;13816;53.628;9.950;2023-02-01T09:34:47;30.13;;;6.53;;
26040;SDS011;13816;53.628;9.950;2023-02-01T09:37:13;31.00;;;6.00;;
26040;SDS011;13816;53.628;9.950;2023-02-01T09:39:40;26.00;;;4.80;;
26040;SDS011;13816;53.628;9.950;2023-02-01T09:45:12;34.80;;;5.93;;
26040;SDS011;13816;53.628;9.950;2023-02-01T09:47:43;27.03;;;4.93;;
26040;SDS011;13816;53.628;9.950;2023-02-01T09:50:13;36.43;;;4.80;;
26040;SDS011;13816;53.628;9.950;2023-02-01T09:52:44;24.77;;;5.40;;
26040;SDS011;13816;53.628;9.950;2023-02-01T09:55:13;26.60;;;5.77;;
26040;SDS011;13816;53.628;9.950;2023-02-01T09:57:51;29.90;;;5.53;;
26040;SDS011;13816;53.628;9.950;2023-02-01T10:00:25;28.33;;;4.97;;
26040;SDS011;13816;53.628;9.950;2023-02-01T10:02:53;23.90;;;4.97;;
26040;SDS011;13816;53.628;9.950;2023-02-01T10:05:23;42.37;;;6.10;;
26040;SDS011;13816;53.628;9.950;2023-02-01T10:07:57;30.63;;;6.13;;
26040;SDS011;13816;53.628;9.950;2023-02-01T10:15:42;31.13;;;5.10;;
26040;SDS011;13816;53.628;9.950;2023-02-01T10:18:13;22.03;;;4.70;;
26040;SDS011;13816;53.628;9.950;2023-02-01T10:26:17;33.90;;;5.33;;
26040;SDS011;13816;53.628;9.950;2023-02-01T10:28:44;26.17;;;5.20;;
26040;SDS011;13816;53.628;9.950;2023-02-01T10:31:12;27.80;;;5.03;;
26040;SDS011;13816;53.628;9.950;2023-02-01T10:33:41;18.13;;;5.80;;
26040;SDS011;13816;53.628;9.950;2023-02-01T10:36:11;22.40;;;4.53;;
26040;SDS011;13816;53.628;9.950;2023-02-01T10:38:40;22.27;;;5.77;;
26040;SDS011;13816;53.628;9.950;2023-02-01T10:41:12;22.97;;;5.40;;
26040;SDS011;13816;53.628;9.950;2023-02-01T10:43:39;20.67;;;4.43;;
26040;SDS011;13816;53.628;9.950;2023-02-01T10:46:06;22.93;;;4.80;;
26040;SDS011;13816;53.628;9.950;2023-02-01T10:48:32;14.60;;;4.13;;
26040;SDS011;13816;53.628;9.950;2023-02-01T10:51:00;16.50;;;4.10;;
26040;SDS011;13816;53.628;9.950;2023-02-01T10:53:34;28.27;;;4.23;;
26040;SDS011;13816;53.628;9.950;2023-02-01T10:56:10;31.30;;;6.07;;
26040;SDS011;13816;53.628;9.950;2023-02-01T10:58:43;28.00;;;5.53;;
26040;SDS011;13816;53.628;9.950;2023-02-01T11:01:15;26.10;;;4.90;;
26040;SDS011;13816;53.628;9.950;2023-02-01T11:03:42;21.60;;;4.10;;
26040;SDS011;13816;53.628;9.950;2023-02-01T11:09:27;13.10;;;2.88;;
26040;SDS011;13816;53.628;9.950;2023-02-01T11:11:57;20.27;;;3.80;;
26040;SDS011;13816;53.628;9.950;2023-02-01T11:14:39;25.17;;;3.93;;
26040;SDS011;13816;53.628;9.950;2023-02-01T11:19:45;29.67;;;4.20;;
26040;SDS011;13816;53.628;9.950;2023-02-01T11:22:15;23.77;;;5.10;;
26040;SDS011;13816;53.628;9.950;2023-02-01T11:25:26;24.97;;;4.73;;
26040;SDS011;13816;53.628;9.950;2023-02-01T11:27:54;29.67;;;5.47;;
26040;SDS011;13816;53.628;9.950;2023-02-01T11:30:31;23.77;;;4.20;;
26040;SDS011;13816;53.628;9.950;2023-02-01T11:32:58;27.87;;;5.13;;
26040;SDS011;13816;53.628;9.950;2023-02-01T11:35:25;29.83;;;5.10;;
26040;SDS011;13816;53.628;9.950;2023-02-01T11:37:57;26.13;;;4.83;;
26040;SDS011;13816;53.628;9.950;2023-02-01T11:40:28;39.67;;;4.83;;
26040;SDS011;13816;53.628;9.950;2023-02-01T11:42:58;23.93;;;4.60;;
26040;SDS011;13816;53.628;9.950;2023-02-01T11:45:26;25.80;;;5.20;;
26040;SDS011;13816;53.628;9.950;2023-02-01T11:47:53;27.80;;;5.43;;
26040;SDS011;13816;53.628;9.950;2023-02-01T11:55:39;17.67;;;3.83;;
26040;SDS011;13816;53.628;9.950;2023-02-01T11:58:23;13.30;;;3.10;;
26040;SDS011;13816;53.628;9.950;2023-02-01T12:06:10;21.60;;;3.50;;
26040;SDS011;13816;53.628;9.950;2023-02-01T12:16:44;23.03;;;3.73;;
26040;SDS011;13816;53.628;9.950;2023-02-01T12:26:53;17.70;;;4.40;;
26040;SDS011;13816;53.628;9.950;2023-02-01T12:29:27;25.23;;;4.87;;
26040;SDS011;13816;53.628;9.950;2023-02-01T12:34:47;11.00;;;2.00;;
26040;SDS011;13816;53.628;9.950;2023-02-01T12:45:25;1.27;;;0.87;;
26040;SDS011;13816;53.628;9.950;2023-02-01T12:47:57;3.90;;;1.23;;
26040;SDS011;13816;53.628;9.950;2023-02-01T12:50:28;3.63;;;0.90;;
26040;SDS011;13816;53.628;9.950;2023-02-01T12:53:06;4.10;;;0.97;;
26040;SDS011;13816;53.628;9.950;2023-02-01T12:55:35;4.43;;;1.43;;
26040;SDS011;13816;53.628;9.950;2023-02-01T12:58:24;5.50;;;1.10;;
26040;SDS011;13816;53.628;9.950;2023-02-01T13:03:36;3.43;;;1.10;;
26040;SDS011;13816;53.628;9.950;2023-02-01T13:06:13;2.90;;;0.90;;
26040;SDS011;13816;53.628;9.950;2023-02-01T13:08:44;4.10;;;1.53;;
26040;SDS011;13816;53.628;9.950;2023-02-01T13:11:14;3.00;;;1.03;;
26040;SDS011;13816;53.628;9.950;2023-02-01T13:13:58;2.60;;;0.90;;
26040;SDS011;13816;53.628;9.950;2023-02-01T13:19:09;2.70;;;0.90;;
26040;SDS011;13816;53.628;9.950;2023-02-01T13:21:39;8.07;;;1.40;;
26040;SDS011;13816;53.628;9.950;2023-02-01T13:24:08;3.80;;;0.97;;
26040;SDS011;13816;53.628;9.950;2023-02-01T13:26:39;4.30;;;0.90;;
26040;SDS011;13816;53.628;9.950;2023-02-01T13:29:25;3.60;;;1.10;;
26040;SDS011;13816;53.628;9.950;2023-02-01T13:49:46;4.53;;;1.40;;
26040;SDS011;13816;53.628;9.950;2023-02-01T13:53:36;3.43;;;1.57;;
26040;SDS011;13816;53.628;9.950;2023-02-01T13:56:54;6.87;;;1.60;;
26040;SDS011;13816;53.628;9.950;2023-02-01T14:03:42;4.87;;;1.40;;
26040;SDS011;13816;53.628;9.950;2023-02-01T14:07:17;5.60;;;1.57;;
26040;SDS011;13816;53.628;9.950;2023-02-01T14:17:32;7.30;;;1.90;;
26040;SDS011;13816;53.628;9.950;2023-02-01T14:24:22;9.83;;;2.20;;
26040;SDS011;13816;53.628;9.950;2023-02-01T14:27:34;11.87;;;2.13;;
26040;SDS011;13816;53.628;9.950;2023-02-01T14:30:26;7.50;;;2.20;;
26040;SDS011;13816;53.628;9.950;2023-02-01T14:43:48;6.70;;;1.73;;
26040;SDS011;13816;53.628;9.950;2023-02-01T14:59:36;7.73;;;1.83;;
26040;SDS011;13816;53.628;9.950;2023-02-01T15:02:18;10.37;;;2.40;;
26040;SDS011;13816;53.628;9.950;2023-02-01T15:05:20;12.57;;;3.37;;
26040;SDS011;13816;53.628;9.950;2023-02-01T15:08:43;13.93;;;2.83;;
26040;SDS011;13816;53.628;9.950;2023-02-01T15:15:14;17.07;;;3.43;;
26040;SDS011;13816;53.628;9.950;2023-02-01T15:18:16;16.77;;;3.23;;
26040;SDS011;13816;53.628;9.950;2023-02-01T15:21:04;13.47;;;2.87;;
26040;SDS011;13816;53.628;9.950;2023-02-01T15:27:39;17.90;;;3.20;;
26040;SDS011;13816;53.628;9.950;2023-02-01T15:34:16;21.67;;;3.60;;
26040;SDS011;13816;53.628;9.950;2023-02-01T15:37:36;31.20;;;3.50;;
26040;SDS011;13816;53.628;9.950;2023-02-01T15:41:12;13.50;;;2.93;;
26040;SDS011;13816;53.628;9.950;2023-02-01T15:44:53;20.13;;;2.90;;
26040;SDS011;13816;53.628;9.950;2023-02-01T15:48:18;16.13;;;3.40;;
26040;SDS011;13816;53.628;9.950;2023-02-01T15:54:52;12.30;;;3.40;;
26040;SDS011;13816;53.628;9.950;2023-02-01T15:57:51;22.83;;;3.67;;
26040;SDS011;13816;53.628;9.950;2023-02-01T16:00:53;27.70;;;4.23;;
26040;SDS011;13816;53.628;9.950;2023-02-01T16:04:10;20.70;;;4.33;;
26040;SDS011;13816;53.628;9.950;2023-02-01T16:10:42;23.03;;;5.60;;
26040;SDS011;13816;53.628;9.950;2023-02-01T16:13:59;24.77;;;6.17;;
26040;SDS011;13816;53.628;9.950;2023-02-01T16:20:22;26.70;;;5.10;;
26040;SDS011;13816;53.628;9.950;2023-02-01T16:23:16;25.00;;;5.30;;
26040;SDS011;13816;53.628;9.950;2023-02-01T16:29:26;24.27;;;4.93;;
26040;SDS011;13816;53.628;9.950;2023-02-01T16:32:20;27.13;;;5.30;;
26040;SDS011;13816;53.628;9.950;2023-02-01T16:37:58;29.53;;;5.53;;
26040;SDS011;13816;53.628;9.950;2023-02-01T16:41:34;30.70;;;5.07;;
26040;SDS011;13816;53.628;9.950;2023-02-01T16:44:07;29.90;;;5.80;;
26040;SDS011;13816;53.628;9.950;2023-02-01T16:46:53;28.47;;;5.47;;
26040;SDS011;13816;53.628;9.950;2023-02-01T16:53:14;31.70;;;6.10;;
26040;SDS011;13816;53.628;9.950;2023-02-01T16:56:42;25.10;;;5.13;;
26040;SDS011;13816;53.628;9.950;2023-02-01T16:58:58;33.40;;;8.80;;
26040;SDS011;13816;53.628;9.950;2023-02-01T17:01:49;31.17;;;6.50;;
26040;SDS011;13816;53.628;9.950;2023-02-01T17:04:30;40.27;;;6.87;;
26040;SDS011;13816;53.628;9.950;2023-02-01T17:07:26;45.67;;;6.87;;
26040;SDS011;13816;53.628;9.950;2023-02-01T17:10:47;33.63;;;7.17;;
26040;SDS011;13816;53.628;9.950;2023-02-01T17:17:36;29.50;;;6.40;;
26040;SDS011;13816;53.628;9.950;2023-02-01T17:21:05;26.20;;;5.50;;
26040;SDS011;13816;53.628;9.950;2023-02-01T17:28:07;45.07;;;6.07;;
26040;SDS011;13816;53.628;9.950;2023-02-01T17:31:37;23.23;;;4.70;;
26040;SDS011;13816;53.628;9.950;2023-02-01T17:35:02;25.03;;;5.73;;
26040;SDS011;13816;53.628;9.950;2023-02-01T17:37:41;32.50;;;5.63;;
26040;SDS011;13816;53.628;9.950;2023-02-01T17:48:15;27.07;;;6.47;;
26040;SDS011;13816;53.628;9.950;2023-02-01T18:01:47;26.20;;;6.10;;
26040;SDS011;13816;53.628;9.950;2023-02-01T18:18:46;29.13;;;5.97;;
26040;SDS011;13816;53.628;9.950;2023-02-01T18:21:35;26.60;;;5.20;;
26040;SDS011;13816;53.628;9.950;2023-02-01T18:24:53;35.57;;;7.53;;
26040;SDS011;13816;53.628;9.950;2023-02-01T18:28:16;32.53;;;6.03;;
26040;SDS011;13816;53.628;9.950;2023-02-01T18:48:40;31.43;;;6.73;;
26040;SDS011;13816;53.628;9.950;2023-02-01T18:51:51;33.90;;;6.17;;
26040;SDS011;13816;53.628;9.950;2023-02-01T18:55:43;32.93;;;7.90;;
26040;SDS011;13816;53.628;9.950;2023-02-01T19:02:11;37.23;;;7.50;;
26040;SDS011;13816;53.628;9.950;2023-02-01T19:05:45;31.87;;;5.63;;
26040;SDS011;13816;53.628;9.950;2023-02-01T19:09:02;28.87;;;6.83;;
26040;SDS011;13816;53.628;9.950;2023-02-01T19:12:11;41.50;;;8.40;;
26040;SDS011;13816;53.628;9.950;2023-02-01T19:14:39;25.53;;;5.43;;
26040;SDS011;13816;53.628;9.950;2023-02-01T19:17:21;30.57;;;6.37;;
26040;SDS011;13816;53.628;9.950;2023-02-01T19:20:13;24.67;;;5.47;;
26040;SDS011;13816;53.628;9.950;2023-02-01T19:23:38;33.13;;;6.37;;
26040;SDS011;13816;53.628;9.950;2023-02-01T19:26:29;22.33;;;5.20;;
26040;SDS011;13816;53.628;9.950;2023-02-01T19:29:27;35.97;;;8.50;;
26040;SDS011;13816;53.628;9.950;2023-02-01T19:32:02;27.77;;;4.87;;
26040;SDS011;13816;53.628;9.950;2023-02-01T19:35:21;24.03;;;4.97;;
26040;SDS011;13816;53.628;9.950;2023-02-01T19:39:08;20.70;;;4.30;;
26040;SDS011;13816;53.628;9.950;2023-02-01T19:42:42;18.10;;;4.37;;
26040;SDS011;13816;53.628;9.950;2023-02-01T19:45:45;18.93;;;3.43;;
26040;SDS011;13816;53.628;9.950;2023-02-01T20:17:22;25.77;;;5.87;;
26040;SDS011;13816;53.628;9.950;2023-02-01T20:24:40;20.43;;;5.63;;
26040;SDS011;13816;53.628;9.950;2023-02-01T20:32:09;45.03;;;6.80;;
26040;SDS011;13816;53.628;9.950;2023-02-01T20:39:08;30.47;;;6.50;;
26040;SDS011;13816;53.628;9.950;2023-02-01T20:42:19;23.80;;;5.70;;
26040;SDS011;13816;53.628;9.950;2023-02-01T20:48:53;33.13;;;6.07;;
26040;SDS011;13816;53.628;9.950;2023-02-01T20:51:28;48.40;;;6.67;;
26040;SDS011;13816;53.628;9.950;2023-02-01T20:53:54;36.47;;;6.10;;
26040;SDS011;13816;53.628;9.950;2023-02-01T20:56:20;45.77;;;7.07;;
26040;SDS011;13816;53.628;9.950;2023-02-01T20:58:47;25.37;;;5.90;;
26040;SDS011;13816;53.628;9.950;2023-02-01T21:04:02;36.80;;;6.37;;
26040;SDS011;13816;53.628;9.950;2023-02-01T21:06:28;32.43;;;6.73;;
26040;SDS011;13816;53.628;9.950;2023-02-01T21:09:25;32.97;;;5.77;;
26040;SDS011;13816;53.628;9.950;2023-02-01T21:12:05;41.47;;;7.20;;
26040;SDS011;13816;53.628;9.950;2023-02-01T21:15:23;40.40;;;7.00;;
26040;SDS011;13816;53.628;9.950;2023-02-01T21:18:40;33.93;;;6.40;;
26040;SDS011;13816;53.628;9.950;2023-02-01T21:21:53;32.17;;;5.00;;
26040;SDS011;13816;53.628;9.950;2023-02-01T21:24:27;31.53;;;4.97;;
26040;SDS011;13816;53.628;9.950;2023-02-01T21:27:29;30.40;;;5.73;;
26040;SDS011;13816;53.628;9.950;2023-02-01T21:30:16;34.17;;;5.23;;
26040;SDS011;13816;53.628;9.950;2023-02-01T21:33:16;34.90;;;5.13;;
26040;SDS011;13816;53.628;9.950;2023-02-01T21:36:33;32.83;;;5.80;;
26040;SDS011;13816;53.628;9.950;2023-02-01T21:39:47;32.47;;;5.23;;
26040;SDS011;13816;53.628;9.950;2023-02-01T21:42:48;31.60;;;5.97;;
26040;SDS011;13816;53.628;9.950;2023-02-01T21:45:26;25.77;;;4.33;;
26040;SDS011;13816;53.628;9.950;2023-02-01T21:48:30;28.23;;;6.90;;
26040;SDS011;13816;53.628;9.950;2023-02-01T21:51:33;35.47;;;6.37;;
26040;SDS011;13816;53.628;9.950;2023-02-01T21:54:29;40.47;;;6.10;;
26040;SDS011;13816;53.628;9.950;2023-02-01T21:57:39;34.67;;;6.13;;
26040;SDS011;13816;53.628;9.950;2023-02-01T22:00:24;23.17;;;5.07;;
26040;SDS011;13816;53.628;9.950;2023-02-01T22:03:14;29.83;;;5.43;;
26040;SDS011;13816;53.628;9.950;2023-02-01T22:06:08;29.10;;;6.57;;
26040;SDS011;13816;53.628;9.950;2023-02-01T22:08:48;25.97;;;5.53;;
26040;SDS011;13816;53.628;9.950;2023-02-01T22:14:24;25.30;;;5.20;;
26040;SDS011;13816;53.628;9.950;2023-02-01T22:17:01;25.47;;;5.73;;
26040;SDS011;13816;53.628;9.950;2023-02-01T22:19:33;37.63;;;6.43;;
26040;SDS011;13816;53.628;9.950;2023-02-01T22:22:10;43.23;;;6.77;;
26040;SDS011;13816;53.628;9.950;2023-02-01T22:24:41;43.13;;;6.60;;
26040;SDS011;13816;53.628;9.950;2023-02-01T22:27:25;35.80;;;6.87;;
26040;SDS011;13816;53.628;9.950;2023-02-01T22:30:10;35.63;;;6.70;;
26040;SDS011;13816;53.628;9.950;2023-02-01T22:33:09;32.73;;;6.70;;
26040;SDS011;13816;53.628;9.950;2023-02-01T22:35:39;40.47;;;6.40;;
26040;SDS011;13816;53.628;9.950;2023-02-01T22:38:29;38.67;;;7.17;;
26040;SDS011;13816;53.628;9.950;2023-02-01T22:41:30;25.60;;;5.80;;
26040;SDS011;13816;53.628;9.950;2023-02-01T22:43:59;30.67;;;6.50;;
26040;SDS011;13816;53.628;9.950;2023-02-01T22:46:47;31.27;;;6.80;;
26040;SDS011;13816;53.628;9.950;2023-02-01T22:49:19;28.80;;;5.30;;
26040;SDS011;13816;53.628;9.950;2023-02-01T22:52:01;21.60;;;5.07;;
26040;SDS011;13816;53.628;9.950;2023-02-01T22:54:43;31.20;;;5.88;;
26040;SDS011;13816;53.628;9.950;2023-02-01T22:57:14;29.67;;;6.10;;
26040;SDS011;13816;53.628;9.950;2023-02-01T23:00:28;25.67;;;4.93;;
26040;SDS011;13816;53.628;9.950;2023-02-01T23:02:58;29.87;;;4.87;;
26040;SDS011;13816;53.628;9.950;2023-02-01T23:05:26;22.27;;;5.47;;
26040;SDS011;13816;53.628;9.950;2023-02-01T23:07:53;38.23;;;6.07;;
26040;SDS011;13816;53.628;9.950;2023-02-01T23:10:25;35.47;;;5.30;;
26040;SDS011;13816;53.628;9.950;2023-02-01T23:13:05;29.23;;;6.80;;